Time;durP1;ratioP1;P1;durP2;ratioP2;P2;SDS_P1;SDS_P2;PMS_P1;PMS_P2;Temp;Humidity;BMP_temperature;BMP_pressure;BME280_temperature;BME280_humidity;BME280_pressure;Samples;Min_cycle;Max_cycle;Signal;HPM_P1;HPM_P2
2023/08/16 00:02:01;;;;;;;5.93;2.88;;;;;;;25.20;100.00;101484.28;5069103;28;20594;-47
2023/08/16 00:04:28;;;;;;;3.42;2.30;;;;;;;25.02;100.00;101490.31;5069226;28;20068;-49
2023/08/16 00:06:55;;;;;;;5.65;2.42;;;;;;;25.10;100.00;101494.28;5067256;28;20052;-50
2023/08/16 00:09:22;;;;;;;6.22;2.95;;;;;;;25.08;100.00;101494.00;5064504;28;20052;-49
2023/08/16 00:11:48;;;;;;;5.28;2.80;;;;;;;25.04;100.00;101489.81;5058417;28;20048;-48
2023/08/16 00:14:15;;;;;;;7.35;2.67;;;;;;;25.21;100.00;101494.38;5068788;28;20470;-52
2023/08/16 00:16:41;;;;;;;3.50;2.30;;;;;;;25.07;100.00;101492.41;5065235;28;20052;-48
2023/08/16 00:19:09;;;;;;;5.68;2.67;;;;;;;25.06;100.00;101496.56;5064719;28;20490;-52
2023/08/16 00:21:36;;;;;;;8.55;2.60;;;;;;;25.20;100.00;101492.84;5068825;28;20076;-49
2023/08/16 00:24:04;;;;;;;6.22;2.63;;;;;;;25.16;100.00;101497.19;5068340;28;20105;-45
2023/08/16 00:26:31;;;;;;;6.80;3.08;;;;;;;25.18;100.00;101501.06;5069377;28;20049;-46
2023/08/16 00:28:57;;;;;;;5.82;2.95;;;;;;;25.20;100.00;101498.53;5067219;28;20048;-45
2023/08/16 00:31:24;;;;;;;4.93;2.67;;;;;;;25.32;100.00;101494.53;5069699;28;20155;-50
2023/08/16 00:33:51;;;;;;;4.20;2.35;;;;;;;25.30;100.00;101499.94;5063323;28;20473;-48
2023/08/16 00:36:17;;;;;;;4.72;2.60;;;;;;;25.09;100.00;101501.25;5071799;28;20392;-45
2023/08/16 00:38:46;;;;;;;4.60;2.78;;;;;;;25.10;100.00;101502.00;5066935;28;20044;-45
2023/08/16 00:41:13;;;;;;;6.00;2.75;;;;;;;25.06;100.00;101502.25;5069474;28;20128;-51
2023/08/16 00:43:40;;;;;;;5.93;2.90;;;;;;;25.15;100.00;101496.41;5068176;28;20041;-44
2023/08/16 00:46:10;;;;;;;5.40;2.58;;;;;;;25.09;100.00;101498.41;5060221;28;20098;-49
2023/08/16 00:48:42;;;;;;;4.35;2.38;;;;;;;25.14;100.00;101491.97;5067634;28;20067;-48
2023/08/16 00:51:09;;;;;;;5.22;2.50;;;;;;;25.24;100.00;101490.53;5061765;28;20080;-46
2023/08/16 00:53:38;;;;;;;7.68;2.70;;;;;;;25.22;100.00;101486.63;5068069;28;20382;-49
2023/08/16 08:38:35;;;;;;;8.15;3.45;;;;;;;24.63;100.00;101662.44;5068702;28;20176;-45
2023/08/16 08:41:02;;;;;;;17.73;3.40;;;;;;;24.91;100.00;101652.31;5069945;28;20422;-45
2023/08/16 08:43:37;;;;;;;15.10;2.80;;;;;;;24.91;100.00;101665.75;5057669;28;20049;-46
2023/08/16 08:46:23;;;;;;;14.55;3.58;;;;;;;24.97;100.00;101664.53;5058844;28;20067;-48
2023/08/16 08:48:50;;;;;;;14.52;3.58;;;;;;;25.08;100.00;101659.03;5053682;28;20408;-47
2023/08/16 08:51:17;;;;;;;14.57;3.47;;;;;;;25.05;100.00;101662.84;5056140;28;20135;-45
2023/08/16 08:53:43;;;;;;;11.38;3.28;;;;;;;25.23;100.00;101665.41;5051910;28;20877;-44
2023/08/16 08:56:13;;;;;;;13.63;3.90;;;;;;;25.28;100.00;101663.94;5054975;28;20696;-48
2023/08/16 08:58:40;;;;;;;9.68;3.10;;;;;;;25.13;100.00;101668.88;5063500;28;20163;-46
2023/08/16 09:01:09;;;;;;;14.88;3.38;;;;;;;25.11;100.00;101665.78;5054422;28;20111;-47
2023/08/16 09:03:37;;;;;;;11.50;3.42;;;;;;;25.08;100.00;101661.88;5050121;28;20506;-44
2023/08/16 09:06:05;;;;;;;9.88;3.28;;;;;;;24.83;100.00;101659.63;5062847;28;20049;-49
2023/08/16 09:08:36;;;;;;;13.80;3.45;;;;;;;24.74;100.00;101671.13;5051229;28;20049;-45
2023/08/16 09:11:03;;;;;;;10.07;3.35;;;;;;;24.74;100.00;101667.50;5055283;28;20057;-44
2023/08/16 09:13:31;;;;;;;10.57;2.90;;;;;;;24.77;100.00;101666.53;5057280;28;20056;-45
2023/08/16 09:16:01;;;;;;;9.63;3.03;;;;;;;24.73;100.00;101663.88;5058297;28;20045;-47
2023/08/16 09:18:27;;;;;;;14.80;3.45;;;;;;;24.87;100.00;101663.09;5051773;28;20056;-47
2023/08/16 09:20:58;;;;;;;10.38;3.83;;;;;;;25.19;100.00;101664.84;5054950;28;20049;-47
2023/08/16 09:23:25;;;;;;;12.27;3.13;;;;;;;25.20;100.00;101663.56;5048390;28;20076;-48
2023/08/16 09:25:52;;;;;;;13.32;4.05;;;;;;;25.28;100.00;101667.53;5050782;28;20049;-45
2023/08/16 09:28:19;;;;;;;10.40;3.28;;;;;;;25.47;100.00;101660.34;5054915;28;20072;-45
2023/08/16 09:30:46;;;;;;;6.25;2.72;;;;;;;25.51;100.00;101668.66;5056014;28;20041;-48
2023/08/16 09:33:14;;;;;;;12.20;3.65;;;;;;;25.42;100.00;101661.03;5054483;28;20102;-49
2023/08/16 09:35:48;;;;;;;12.02;3.97;;;;;;;25.42;100.00;101668.78;5056351;28;20129;-47
2023/08/16 09:38:17;;;;;;;9.97;3.73;;;;;;;25.21;100.00;101665.13;5074655;28;20048;-48
2023/08/16 09:41:03;;;;;;;12.73;3.80;;;;;;;25.30;100.00;101664.19;5071982;28;20298;-45
2023/08/16 09:43:32;;;;;;;12.88;3.80;;;;;;;25.49;100.00;101669.16;5079680;28;20056;-47
2023/08/16 09:45:59;;;;;;;13.75;3.60;;;;;;;25.35;100.00;101666.34;5069862;28;20044;-45
2023/08/16 09:48:27;;;;;;;15.10;3.72;;;;;;;25.37;100.00;101669.47;5065327;28;20507;-43
2023/08/16 09:51:03;;;;;;;11.95;3.60;;;;;;;25.37;100.00;101667.41;5062373;28;20682;-50
2023/08/16 09:53:33;;;;;;;11.25;3.40;;;;;;;25.35;100.00;101667.13;5062146;28;20583;-45
2023/08/16 09:56:04;;;;;;;13.48;4.50;;;;;;;25.22;100.00;101669.56;5063138;28;20051;-48
2023/08/16 09:58:51;;;;;;;11.35;3.67;;;;;;;25.35;100.00;101677.75;5058863;28;20047;-46
2023/08/16 10:01:18;;;;;;;9.43;3.97;;;;;;;25.34;100.00;101682.63;5058510;28;20518;-44
2023/08/16 10:03:52;;;;;;;12.32;3.65;;;;;;;25.34;100.00;101673.34;5028140;28;20481;-46
2023/08/16 10:06:23;;;;;;;11.35;3.83;;;;;;;25.26;100.00;101666.50;5025963;28;20226;-43
2023/08/16 10:09:06;;;;;;;12.55;3.38;;;;;;;25.35;100.00;101666.34;5013467;28;20049;-48
2023/08/16 10:11:33;;;;;;;13.35;3.58;;;;;;;25.22;100.00;101658.19;5028067;28;20053;-46
2023/08/16 10:14:02;;;;;;;10.80;3.63;;;;;;;25.02;100.00;101657.34;5027828;28;20619;-45
2023/08/16 10:16:30;;;;;;;11.90;3.80;;;;;;;25.23;100.00;101656.09;5025572;28;20137;-43
2023/08/16 10:19:00;;;;;;;9.27;3.17;;;;;;;25.31;100.00;101669.41;5019902;28;20049;-46
2023/08/16 10:21:30;;;;;;;20.98;3.30;;;;;;;25.23;100.00;101670.31;5037544;28;20072;-48
2023/08/16 10:23:57;;;;;;;12.98;3.90;;;;;;;25.35;100.00;101675.66;5052611;28;20060;-46
2023/08/16 10:26:31;;;;;;;11.25;3.42;;;;;;;25.52;100.00;101656.75;5050824;28;20126;-46
2023/08/16 10:29:07;;;;;;;7.78;3.08;;;;;;;25.31;100.00;101655.16;5057072;28;20080;-43
2023/08/16 10:31:48;;;;;;;11.02;3.00;;;;;;;25.34;100.00;101653.41;5058441;28;20044;-43
2023/08/16 10:34:16;;;;;;;8.90;3.22;;;;;;;25.47;100.00;101653.84;5052265;28;20041;-47
2023/08/16 10:36:43;;;;;;;10.10;3.22;;;;;;;25.49;100.00;101660.63;5052810;28;20049;-43
2023/08/16 10:39:21;;;;;;;13.20;3.13;;;;;;;25.43;100.00;101665.44;5058109;28;20072;-46
2023/08/16 10:41:50;;;;;;;23.83;3.50;;;;;;;25.50;100.00;101667.09;5052599;28;20076;-46
2023/08/16 10:44:23;;;;;;;12.23;2.97;;;;;;;25.30;100.00;101670.69;5062008;28;20052;-42
2023/08/16 10:46:50;;;;;;;8.43;3.22;;;;;;;25.19;100.00;101669.75;5062017;28;20060;-44
2023/08/16 10:49:18;;;;;;;14.45;3.17;;;;;;;25.27;100.00;101676.59;5065446;28;20069;-44
2023/08/16 10:51:47;;;;;;;11.98;3.30;;;;;;;25.15;100.00;101666.34;5057598;28;20090;-45
2023/08/16 10:54:15;;;;;;;9.20;3.42;;;;;;;25.22;100.00;101669.56;5060702;28;20051;-44
2023/08/16 10:56:48;;;;;;;13.57;3.30;;;;;;;25.43;100.00;101668.28;5062920;28;20049;-48
2023/08/16 10:59:15;;;;;;;14.27;3.05;;;;;;;25.53;100.00;101668.94;5070974;28;20479;-49
2023/08/16 11:01:50;;;;;;;21.48;3.00;;;;;;;25.57;100.00;101672.34;5056553;28;20157;-50
2023/08/16 11:04:17;;;;;;;10.48;3.05;;;;;;;25.74;100.00;101664.78;5068570;28;20085;-47
2023/08/16 11:06:43;;;;;;;9.95;3.13;;;;;;;25.75;100.00;101672.06;5066009;28;20132;-47
2023/08/16 11:09:29;;;;;;;19.15;3.05;;;;;;;25.68;100.00;101661.09;5050418;28;20572;-46
2023/08/16 11:12:00;;;;;;;12.25;3.33;;;;;;;25.67;100.00;101654.63;5054091;28;20583;-47
2023/08/16 11:14:26;;;;;;;16.52;3.15;;;;;;;25.62;100.00;101661.03;5062067;28;20100;-46
2023/08/16 11:16:55;;;;;;;13.23;2.83;;;;;;;25.35;100.00;101664.28;5063047;28;20055;-45
2023/08/16 11:19:22;;;;;;;19.60;3.67;;;;;;;25.46;100.00;101655.94;5065045;28;20135;-47
2023/08/16 11:21:51;;;;;;;11.35;3.05;;;;;;;24.70;100.00;101664.09;5054409;28;20506;-41
2023/08/16 11:24:18;;;;;;;12.15;3.00;;;;;;;24.38;100.00;101661.00;5023822;28;20053;-35
2023/08/16 11:26:45;;;;;;;15.43;3.13;;;;;;;24.33;100.00;101653.16;5012029;28;20049;-37
2023/08/16 11:29:12;;;;;;;18.05;3.30;;;;;;;24.26;100.00;101658.44;5035085;28;20053;-37
2023/08/16 11:31:38;;;;;;;10.40;3.20;;;;;;;24.24;100.00;101675.97;5031523;28;20678;-38
2023/08/16 11:34:13;;;;;;;19.40;3.33;;;;;;;24.15;100.00;101667.53;5029172;28;20041;-36
2023/08/16 11:36:39;;;;;;;10.75;3.17;;;;;;;24.17;100.00;101664.22;5032301;28;20102;-36
2023/08/16 11:39:09;;;;;;;8.10;2.92;;;;;;;24.20;100.00;101658.31;5044572;28;20072;-36
2023/08/16 11:41:36;;;;;;;8.95;2.83;;;;;;;24.19;100.00;101656.75;5047267;28;20056;-37
2023/08/16 11:44:03;;;;;;;7.60;3.63;;;;;;;24.13;100.00;101649.41;5044998;28;20068;-39
2023/08/16 11:46:40;;;;;;;8.05;2.83;;;;;;;24.12;100.00;101647.84;5034967;28;20045;-38
2023/08/16 11:49:08;;;;;;;8.32;2.78;;;;;;;24.09;100.00;101643.13;5031720;28;20042;-38
2023/08/16 11:51:53;;;;;;;7.97;3.00;;;;;;;24.14;100.00;101648.91;5036648;28;20127;-37
2023/08/16 11:54:21;;;;;;;10.68;3.45;;;;;;;24.16;100.00;101654.88;5031924;28;20458;-37
2023/08/16 11:56:48;;;;;;;11.25;3.05;;;;;;;24.14;100.00;101657.44;5037942;28;20472;-35
2023/08/16 11:59:28;;;;;;;8.43;2.97;;;;;;;24.12;100.00;101656.34;5038719;28;20128;-38
2023/08/16 12:01:55;;;;;;;8.85;2.78;;;;;;;24.11;100.00;101655.59;5039363;28;20435;-39
2023/08/16 12:04:23;;;;;;;7.22;3.10;;;;;;;24.07;100.00;101652.13;5033686;28;20051;-34
2023/08/16 12:06:50;;;;;;;8.48;3.47;;;;;;;24.07;100.00;101657.06;5035295;28;20465;-35
2023/08/16 12:09:19;;;;;;;6.68;2.85;;;;;;;24.03;100.00;101645.88;5039346;28;20137;-38
2023/08/16 12:11:52;;;;;;;7.65;3.00;;;;;;;24.08;100.00;101639.53;5036159;28;20052;-36
2023/08/16 12:14:18;;;;;;;7.63;2.88;;;;;;;24.10;100.00;101639.78;5040762;28;20053;-40
2023/08/16 12:16:45;;;;;;;8.23;2.80;;;;;;;24.09;100.00;101643.13;5029947;28;20049;-38
2023/08/16 12:19:18;;;;;;;5.68;2.58;;;;;;;24.05;100.00;101631.97;5033963;28;20124;-37
2023/08/16 12:21:45;;;;;;;8.55;3.20;;;;;;;24.07;100.00;101635.09;5036977;28;20049;-40
2023/08/16 12:24:11;;;;;;;7.88;2.78;;;;;;;24.17;100.00;101627.28;5037218;28;20160;-38
2023/08/16 12:26:38;;;;;;;7.75;2.80;;;;;;;24.21;100.00;101622.16;5034464;28;20124;-34
2023/08/16 12:29:04;;;;;;;9.73;2.97;;;;;;;24.14;100.00;101617.66;5037809;28;20116;-42
2023/08/16 12:31:31;;;;;;;9.32;3.03;;;;;;;24.15;100.00;101616.41;5033407;28;20534;-37
2023/08/16 12:34:00;;;;;;;8.13;3.30;;;;;;;24.16;100.00;101617.16;5034980;28;20061;-35
2023/08/16 12:36:27;;;;;;;5.97;2.75;;;;;;;24.15;100.00;101616.41;5034048;28;20136;-40
2023/08/16 12:38:54;;;;;;;9.15;3.40;;;;;;;24.13;100.00;101616.09;5031131;28;20044;-38
2023/08/16 12:41:20;;;;;;;9.10;2.97;;;;;;;24.19;100.00;101616.97;5029795;28;20050;-39
2023/08/16 12:43:47;;;;;;;8.40;3.13;;;;;;;24.16;100.00;101612.28;5036389;28;20186;-37
2023/08/16 12:46:13;;;;;;;8.80;3.03;;;;;;;24.13;100.00;101609.66;5040043;28;20049;-40
2023/08/16 12:48:40;;;;;;;10.48;3.42;;;;;;;24.11;100.00;101609.34;5034505;28;20041;-36
2023/08/16 12:51:06;;;;;;;9.57;2.83;;;;;;;24.10;100.00;101607.78;5031681;28;20741;-40
2023/08/16 12:53:41;;;;;;;7.45;2.88;;;;;;;24.09;100.00;101614.72;5034342;28;20049;-40
2023/08/16 12:56:08;;;;;;;10.27;3.20;;;;;;;24.22;100.00;101616.03;5040242;28;20519;-36
2023/08/16 12:58:35;;;;;;;10.27;3.67;;;;;;;24.30;100.00;101605.06;5039757;28;20565;-42
2023/08/16 13:01:01;;;;;;;8.10;3.13;;;;;;;24.32;100.00;101603.28;5040951;28;20127;-38
2023/08/16 13:03:31;;;;;;;5.28;3.15;;;;;;;24.34;100.00;101611.31;5040464;28;20128;-35
2023/08/16 13:06:00;;;;;;;20.67;3.97;;;;;;;24.40;100.00;101609.31;5036384;28;20049;-36
2023/08/16 13:08:30;;;;;;;8.98;3.58;;;;;;;24.52;100.00;101601.75;5029646;28;20096;-36
2023/08/16 13:10:57;;;;;;;13.48;3.78;;;;;;;24.61;100.00;101605.28;5036676;28;20053;-42
2023/08/16 13:13:35;;;;;;;13.43;3.35;;;;;;;24.55;100.00;101601.56;5029166;28;20483;-41
2023/08/16 13:16:02;;;;;;;13.40;3.17;;;;;;;24.39;100.00;101596.41;5043107;28;20056;-36
2023/08/16 13:18:32;;;;;;;9.50;3.30;;;;;;;24.31;100.00;101598.84;5002583;28;20161;-42
2023/08/16 13:21:01;;;;;;;9.73;3.15;;;;;;;24.29;100.00;101609.16;4983395;28;20966;-37
2023/08/16 13:23:47;;;;;;;8.98;2.97;;;;;;;24.25;100.00;101603.69;4983327;28;20054;-35
2023/08/16 13:26:17;;;;;;;7.75;3.25;;;;;;;24.28;100.00;101610.44;4986973;28;20121;-38
2023/08/16 13:28:49;;;;;;;7.78;3.20;;;;;;;24.23;100.00;101606.22;4986344;28;20058;-40
2023/08/16 13:31:34;;;;;;;8.55;3.80;;;;;;;24.15;100.00;101605.03;4982731;28;20123;-36
2023/08/16 13:34:20;;;;;;;12.18;5.13;;;;;;;24.26;100.00;101598.78;4978134;28;20058;-37
2023/08/16 13:36:50;;;;;;;12.70;3.95;;;;;;;24.34;100.00;101599.97;5014835;28;20143;-36
2023/08/16 13:39:19;;;;;;;13.98;4.32;;;;;;;24.29;100.00;101592.91;5039688;28;20218;-37
2023/08/16 13:41:48;;;;;;;9.95;4.53;;;;;;;24.39;100.00;101594.34;4996102;28;20082;-45
2023/08/16 13:44:28;;;;;;;11.18;5.15;;;;;;;24.45;100.00;101588.75;5002299;28;20820;-43
2023/08/16 13:47:15;;;;;;;10.20;4.50;;;;;;;24.39;100.00;101590.72;5000365;28;20528;-44
2023/08/16 13:49:43;;;;;;;12.35;4.25;;;;;;;24.45;100.00;101600.13;4998989;28;20049;-43
2023/08/16 13:52:10;;;;;;;14.35;4.85;;;;;;;24.32;100.00;101591.91;5000732;28;20126;-44
2023/08/16 13:54:36;;;;;;;12.40;4.35;;;;;;;24.30;100.00;101590.84;4999361;28;20284;-43
2023/08/16 13:57:03;;;;;;;11.25;3.67;;;;;;;24.26;100.00;101590.25;4995137;28;20046;-43
2023/08/16 13:59:29;;;;;;;13.77;4.15;;;;;;;24.36;100.00;101586.81;5005611;28;20543;-43
2023/08/16 14:01:56;;;;;;;11.73;3.45;;;;;;;24.31;100.00;101592.41;5042027;28;20100;-42
2023/08/16 14:04:22;;;;;;;11.68;4.00;;;;;;;24.50;100.00;101593.72;5037610;28;20511;-44
2023/08/16 14:06:50;;;;;;;11.38;4.72;;;;;;;24.39;100.00;101597.19;5053351;28;20159;-41
2023/08/16 14:09:17;;;;;;;16.20;4.05;;;;;;;24.25;100.00;101591.53;5045956;28;20550;-41
2023/08/16 14:11:44;;;;;;;14.15;5.43;;;;;;;24.36;100.00;101578.28;5035378;28;20057;-44
2023/08/16 14:14:11;;;;;;;21.08;4.68;;;;;;;24.43;100.00;101589.25;5043788;28;20063;-41
2023/08/16 14:16:38;;;;;;;12.43;4.35;;;;;;;24.34;100.00;101594.28;5044208;28;20053;-38
2023/08/16 14:19:05;;;;;;;10.93;4.10;;;;;;;24.35;100.00;101585.25;5040843;28;20107;-43
2023/08/16 14:21:31;;;;;;;11.27;3.90;;;;;;;24.40;100.00;101576.03;5043032;28;20059;-44
2023/08/16 14:23:58;;;;;;;11.75;5.05;;;;;;;24.43;100.00;101580.72;5045278;28;20048;-42
2023/08/16 14:26:24;;;;;;;13.85;3.80;;;;;;;24.47;100.00;101574.84;5031324;28;20136;-41
2023/08/16 14:28:51;;;;;;;10.57;4.03;;;;;;;24.42;100.00;101567.00;5039238;28;20045;-43
2023/08/16 14:31:18;;;;;;;9.77;4.20;;;;;;;24.47;100.00;101566.31;5037560;28;20063;-41
2023/08/16 14:33:44;;;;;;;14.45;4.38;;;;;;;24.47;100.00;101560.63;5039203;28;20080;-45
2023/08/16 14:36:11;;;;;;;23.13;5.57;;;;;;;24.54;100.00;101574.44;5035814;28;20077;-42
2023/08/16 14:38:37;;;;;;;18.50;4.68;;;;;;;24.55;100.00;101567.47;5039097;28;20077;-41
2023/08/16 14:41:23;;;;;;;23.23;4.93;;;;;;;24.43;100.00;101563.66;5041018;28;20045;-42
2023/08/16 14:43:50;;;;;;;15.35;4.50;;;;;;;24.44;100.00;101564.47;5030696;28;20481;-45
2023/08/16 14:46:18;;;;;;;15.93;4.65;;;;;;;24.44;100.00;101564.47;5035171;28;20095;-42
2023/08/16 14:48:45;;;;;;;16.30;4.07;;;;;;;24.50;100.00;101559.63;5041429;28;20045;-41
2023/08/16 14:51:11;;;;;;;14.88;4.22;;;;;;;24.60;100.00;101563.13;5042255;28;20056;-47
2023/08/16 14:53:38;;;;;;;11.65;3.60;;;;;;;24.51;100.00;101554.72;5034623;28;20554;-41
2023/08/16 14:56:04;;;;;;;10.20;4.57;;;;;;;24.61;100.00;101556.16;5037375;28;20508;-46
2023/08/16 14:58:31;;;;;;;12.02;3.70;;;;;;;24.60;100.00;101561.06;5042207;28;20094;-39
2023/08/16 15:00:57;;;;;;;16.25;4.30;;;;;;;24.65;100.00;101560.38;5039411;28;20080;-41
2023/08/16 15:03:24;;;;;;;11.45;3.97;;;;;;;24.64;100.00;101564.50;5034144;28;20160;-43
2023/08/16 15:05:51;;;;;;;9.30;3.45;;;;;;;24.68;100.00;101562.22;5039125;28;20045;-40
2023/08/16 15:08:18;;;;;;;9.80;3.67;;;;;;;24.67;100.00;101563.47;5043694;28;20052;-40
2023/08/16 15:10:50;;;;;;;8.18;3.60;;;;;;;24.66;100.00;101569.66;5041486;28;20052;-46
2023/08/16 15:13:17;;;;;;;13.85;3.63;;;;;;;24.48;100.00;101571.47;5035148;28;20053;-41
2023/08/16 15:15:43;;;;;;;11.23;3.95;;;;;;;24.49;100.00;101566.59;5035580;28;20081;-42
2023/08/16 15:18:10;;;;;;;12.85;3.90;;;;;;;24.58;100.00;101575.00;5040158;28;20056;-39
2023/08/16 15:20:37;;;;;;;12.90;3.72;;;;;;;24.48;100.00;101574.31;5040325;28;20507;-43
2023/08/16 15:23:03;;;;;;;10.80;4.10;;;;;;;24.59;100.00;101576.56;5038546;28;20064;-42
2023/08/16 15:25:30;;;;;;;12.60;3.83;;;;;;;24.66;100.00;101581.84;5039724;28;20057;-40
2023/08/16 15:27:56;;;;;;;15.55;3.47;;;;;;;24.60;100.00;101575.28;5032859;28;20049;-40
2023/08/16 15:30:23;;;;;;;9.35;3.30;;;;;;;24.46;100.00;101573.25;5034399;28;20053;-38
2023/08/16 15:32:49;;;;;;;12.95;4.53;;;;;;;24.45;100.00;101580.22;5032898;28;20064;-46
2023/08/16 15:35:16;;;;;;;10.02;4.18;;;;;;;24.46;100.00;101576.09;5040293;28;20048;-37
2023/08/16 15:37:42;;;;;;;10.90;3.47;;;;;;;24.37;100.00;101576.25;5049650;28;20507;-41
2023/08/16 15:40:10;;;;;;;8.23;3.40;;;;;;;24.40;100.00;101578.06;5043123;28;20731;-41
2023/08/16 15:42:36;;;;;;;9.27;3.72;;;;;;;24.50;100.00;101570.22;5045632;28;20057;-43
2023/08/16 15:45:03;;;;;;;10.68;3.60;;;;;;;24.50;100.00;101565.31;5037522;28;20572;-42
2023/08/16 15:47:30;;;;;;;11.73;3.92;;;;;;;24.45;100.00;101566.00;5029231;28;20164;-46
2023/08/16 15:49:57;;;;;;;10.02;3.45;;;;;;;24.41;100.00;101554.84;5040314;28;20044;-43
2023/08/16 15:52:23;;;;;;;9.50;3.15;;;;;;;24.43;100.00;101557.19;5057651;28;20044;-48
2023/08/16 15:54:50;;;;;;;13.35;3.50;;;;;;;24.42;100.00;101556.44;5045244;28;20477;-46
2023/08/16 15:57:16;;;;;;;10.70;3.70;;;;;;;24.48;100.00;101550.03;5037903;28;20389;-43
2023/08/16 15:59:43;;;;;;;8.75;3.65;;;;;;;24.47;100.00;101551.31;5042845;28;20127;-41
2023/08/16 16:02:14;;;;;;;7.07;3.17;;;;;;;24.44;100.00;101541.72;5044369;28;20073;-44
2023/08/16 16:04:41;;;;;;;10.45;3.20;;;;;;;24.46;100.00;101544.84;5043283;28;20139;-46
2023/08/16 16:07:08;;;;;;;10.85;3.75;;;;;;;24.48;100.00;101540.22;5039475;28;20052;-43
2023/08/16 16:09:34;;;;;;;10.50;3.75;;;;;;;24.42;100.00;101547.91;5040948;28;20045;-44
2023/08/16 16:12:01;;;;;;;5.35;2.80;;;;;;;24.42;100.00;101535.75;5048007;28;20052;-42
2023/08/16 16:14:28;;;;;;;8.27;3.65;;;;;;;24.38;100.00;101538.81;5045339;28;20550;-42
2023/08/16 16:17:22;;;;;;;11.02;3.38;;;;;;;24.42;100.00;101530.06;5040967;28;20057;-47
2023/08/16 16:19:50;;;;;;;8.77;3.40;;;;;;;24.46;100.00;101533.47;5032865;28;20045;-43
2023/08/16 16:22:17;;;;;;;12.80;3.53;;;;;;;24.63;100.00;101531.66;5039322;28;20065;-41
2023/08/16 16:24:44;;;;;;;9.63;3.53;;;;;;;24.88;100.00;101536.69;5038043;28;20782;-42
2023/08/16 16:27:11;;;;;;;13.80;3.22;;;;;;;24.85;100.00;101520.59;5041845;28;20415;-46
2023/08/16 16:29:37;;;;;;;8.85;3.28;;;;;;;24.76;100.00;101526.41;5036243;28;20131;-41
2023/08/16 16:32:04;;;;;;;17.10;3.53;;;;;;;24.74;100.00;101525.34;5039025;28;20099;-45
2023/08/16 16:34:31;;;;;;;12.68;3.50;;;;;;;24.73;100.00;101516.00;5052168;28;20072;-41
2023/08/16 16:36:57;;;;;;;14.27;3.47;;;;;;;24.69;100.00;101521.13;5039796;28;20045;-45
2023/08/16 16:39:24;;;;;;;12.38;3.42;;;;;;;24.71;100.00;101527.13;5038463;28;20073;-46
2023/08/16 16:41:50;;;;;;;10.80;2.95;;;;;;;24.70;100.00;101525.53;5042904;28;20401;-43
2023/08/16 16:44:17;;;;;;;10.75;3.72;;;;;;;24.68;100.00;101522.44;5045318;28;20053;-42
2023/08/16 16:46:43;;;;;;;10.55;3.53;;;;;;;24.57;100.00;101522.25;5034874;28;20136;-43
2023/08/16 16:49:10;;;;;;;9.93;3.40;;;;;;;24.67;100.00;101515.16;5039053;28;20056;-45
2023/08/16 16:51:36;;;;;;;6.55;3.13;;;;;;;24.73;100.00;101510.31;5040165;28;20052;-44
2023/08/16 16:54:03;;;;;;;10.43;3.30;;;;;;;24.66;100.00;101502.22;5036566;28;20095;-42
2023/08/16 16:56:29;;;;;;;11.45;4.03;;;;;;;24.62;100.00;101493.13;5036228;28;20144;-45
2023/08/16 16:58:56;;;;;;;10.95;3.72;;;;;;;24.54;100.00;101499.72;5039379;28;20132;-43
2023/08/16 17:01:22;;;;;;;16.10;4.30;;;;;;;24.57;100.00;101490.97;5035587;28;20477;-44
2023/08/16 17:03:49;;;;;;;17.40;3.92;;;;;;;24.58;100.00;101495.41;5036976;28;20478;-44
2023/08/16 17:06:15;;;;;;;18.85;4.18;;;;;;;24.60;100.00;101500.59;5050800;28;20403;-42
2023/08/16 17:08:42;;;;;;;12.95;3.85;;;;;;;24.58;100.00;101500.31;5039384;28;20110;-44
2023/08/16 17:11:08;;;;;;;23.67;4.63;;;;;;;24.66;100.00;101507.13;5042888;28;20049;-45
2023/08/16 17:13:35;;;;;;;19.25;5.38;;;;;;;24.62;100.00;101515.88;5032611;28;20081;-40
2023/08/16 17:16:03;;;;;;;21.83;5.05;;;;;;;24.59;100.00;101508.34;5048585;28;20103;-44
2023/08/16 17:18:30;;;;;;;19.52;4.53;;;;;;;24.64;100.00;101509.69;5046094;28;20060;-41
2023/08/16 17:21:00;;;;;;;18.70;4.07;;;;;;;24.57;100.00;101513.72;5043579;28;20053;-42
2023/08/16 17:23:26;;;;;;;14.30;4.00;;;;;;;24.52;100.00;101514.44;5033459;28;20131;-44
2023/08/16 17:25:53;;;;;;;18.20;4.05;;;;;;;24.47;100.00;101522.88;5041022;28;20077;-42
2023/08/16 17:28:19;;;;;;;14.77;4.55;;;;;;;24.48;100.00;101513.88;5040543;28;20582;-42
2023/08/16 17:30:49;;;;;;;12.27;3.88;;;;;;;24.44;100.00;101518.97;5043426;28;20087;-42
2023/08/16 17:33:16;;;;;;;16.50;3.95;;;;;;;24.43;100.00;101523.09;5037790;28;20467;-43
2023/08/16 17:35:43;;;;;;;9.18;3.33;;;;;;;24.43;100.00;101523.09;5039533;28;20053;-40
2023/08/16 17:38:11;;;;;;;10.30;3.65;;;;;;;24.38;100.00;101521.75;5032556;28;20504;-39
2023/08/16 17:40:37;;;;;;;12.43;3.40;;;;;;;24.49;100.00;101518.28;5046800;28;20048;-39
2023/08/16 17:43:04;;;;;;;20.30;3.55;;;;;;;24.48;100.00;101534.53;5044306;28;20045;-42
2023/08/16 17:45:30;;;;;;;10.55;3.50;;;;;;;24.48;100.00;101530.91;5047708;28;20175;-38
2023/08/16 17:47:57;;;;;;;12.52;3.90;;;;;;;24.51;100.00;101534.81;5047386;28;20076;-43
2023/08/16 17:50:24;;;;;;;8.70;3.35;;;;;;;24.53;100.00;101529.44;5040013;28;20076;-42
2023/08/16 17:52:50;;;;;;;13.05;3.95;;;;;;;24.37;100.00;101533.59;5038962;28;20526;-41
2023/08/16 17:55:17;;;;;;;9.15;3.30;;;;;;;24.38;100.00;101535.16;5033932;28;20138;-41
2023/08/16 17:57:43;;;;;;;7.75;3.50;;;;;;;24.48;100.00;101530.91;5039293;28;20508;-44
2023/08/16 18:00:11;;;;;;;8.13;3.70;;;;;;;24.59;100.00;101535.97;5039382;28;20103;-42
2023/08/16 18:02:38;;;;;;;10.13;3.45;;;;;;;24.52;100.00;101530.69;5043306;28;20073;-43
2023/08/16 18:05:06;;;;;;;9.95;3.45;;;;;;;24.44;100.00;101530.34;5038857;28;20041;-43
2023/08/16 18:07:32;;;;;;;10.13;3.20;;;;;;;24.43;100.00;101526.72;5033283;28;20522;-41
2023/08/16 18:09:59;;;;;;;6.18;2.97;;;;;;;24.46;100.00;101521.34;5037866;28;20053;-41
2023/08/16 18:12:26;;;;;;;6.63;3.33;;;;;;;24.30;100.00;101514.13;5033591;28;20127;-42
2023/08/16 18:14:52;;;;;;;8.90;3.60;;;;;;;24.19;100.00;101508.22;5039425;28;20057;-42
2023/08/16 18:17:20;;;;;;;7.70;3.40;;;;;;;24.18;100.00;101503.81;5044735;28;20463;-44
2023/08/16 18:19:47;;;;;;;8.70;3.40;;;;;;;24.18;100.00;101506.66;5048394;28;20099;-41
2023/08/16 18:22:13;;;;;;;6.30;3.38;;;;;;;23.93;100.00;101504.47;5041200;28;20045;-40
2023/08/16 18:24:40;;;;;;;8.93;3.97;;;;;;;23.97;100.00;101507.88;5034652;28;20045;-44
2023/08/16 18:27:07;;;;;;;10.95;3.67;;;;;;;23.98;100.00;101510.25;5031267;28;20053;-42
2023/08/16 18:29:33;;;;;;;7.75;3.30;;;;;;;23.99;100.00;101511.00;5044877;28;20466;-41
2023/08/16 18:32:00;;;;;;;6.43;3.53;;;;;;;24.03;100.00;101508.78;5037337;28;20068;-42
2023/08/16 18:34:26;;;;;;;10.15;4.63;;;;;;;24.00;100.00;101512.59;5047244;28;20551;-45
2023/08/16 18:36:53;;;;;;;6.20;3.25;;;;;;;23.96;100.00;101511.97;5043892;28;20073;-44
2023/08/16 18:39:19;;;;;;;6.38;3.35;;;;;;;23.97;100.00;101517.16;5047850;28;20107;-42
2023/08/16 18:41:46;;;;;;;8.98;3.40;;;;;;;23.99;100.00;101528.84;5045516;28;20557;-44
2023/08/16 18:44:12;;;;;;;8.30;3.60;;;;;;;23.99;100.00;101528.84;5043960;28;20055;-45
2023/08/16 18:46:39;;;;;;;8.68;3.50;;;;;;;23.94;100.00;101537.28;5036653;28;20073;-47
2023/08/16 18:49:05;;;;;;;7.88;3.50;;;;;;;23.97;100.00;101537.06;5044908;28;20053;-41
2023/08/16 18:51:32;;;;;;;8.57;3.58;;;;;;;23.94;100.00;101540.09;5043103;28;20118;-39
2023/08/16 18:53:58;;;;;;;7.57;3.50;;;;;;;23.94;100.00;101554.31;5045508;28;20130;-45
2023/08/16 18:56:25;;;;;;;8.95;3.80;;;;;;;23.94;100.00;101548.63;5045047;28;20059;-42
2023/08/16 18:58:52;;;;;;;5.60;3.30;;;;;;;23.97;100.00;101547.66;5045728;28;20458;-45
2023/08/16 19:01:18;;;;;;;9.00;3.45;;;;;;;23.98;100.00;101549.22;5042486;28;20045;-42